ADDS METAR Data INFO
IDs: Format: Raw Decoded Include TAF

Data at: 1441 UTC 22 Feb 2018

KGEU 221353Z 00000KT 10SM SKC 03/M10 A3017 RMK FIRST
KGEU 221248Z 00000KT 10SM SCT140 05/M11 A3014 RMK FIRST
KGEU 212349Z 20008KT 10SM SCT110 15/M13 A3005
KGEU 212251Z 22008G15KT 10SM SCT110 16/M12 A3005
KGEU 212153Z 14006KT 10SM SCT180 16/M12 A3006
KGEU 212049Z 17009KT 10SM SKC 16/M11 A3008
KGEU 211947Z 19006KT 10SM SKC 14/M12 A3010
KGEU 211850Z 00000KT 10SM SKC 13/M10 A3012
KGEU 211758Z 00000KT 10SM SKC 12/M08 A3013
KGEU 211652Z 00000KT 10SM SKC 09/M09 A3013
KGEU 211555Z 00000KT 10SM SKC 06/M08 A3013
KGEU 201451Z 00000KT 10SM SKC 04/M06 A3006
KGEU 211447Z 00000KT 10SM SKC 02/M08 A3011
KGEU 211351Z 00000KT 10SM SKC 02/M08 A3010
KGEU 211247Z 00000KT 10SM SKC 03/M10 A3009 RMK FIRST